createdAt,value
2023-03-07T04:47:42.751Z,2.60
2023-03-07T04:50:10.861Z,2.60
2023-03-07T04:52:37.518Z,2.60
2023-03-07T04:55:05.585Z,2.70
2023-03-07T04:57:32.246Z,2.80
2023-03-07T04:59:58.895Z,2.60
2023-03-07T05:02:25.555Z,2.50
2023-03-07T05:04:52.271Z,2.40
2023-03-07T05:07:18.938Z,2.30
2023-03-07T05:09:45.873Z,2.30
2023-03-07T05:12:12.556Z,2.30
2023-03-07T05:14:39.247Z,2.30
2023-03-07T05:17:05.950Z,2.30
2023-03-07T05:19:32.607Z,2.40
2023-03-07T05:21:59.342Z,2.40
2023-03-07T05:24:26.161Z,2.40
2023-03-07T05:26:52.820Z,2.40
2023-03-07T05:29:19.579Z,2.40
2023-03-07T05:31:46.243Z,2.40
2023-03-07T05:34:13.166Z,2.50
2023-03-07T05:36:39.875Z,2.30
2023-03-07T05:39:06.551Z,2.30
2023-03-07T05:41:36.743Z,2.50
2023-03-07T05:44:03.474Z,2.70
2023-03-07T05:46:30.223Z,2.60
2023-03-07T05:48:57.013Z,2.60
2023-03-07T05:51:23.654Z,2.80
2023-03-07T05:53:50.338Z,2.90
2023-03-07T05:56:17.095Z,2.80
2023-03-07T05:58:43.765Z,2.90
2023-03-07T06:01:10.490Z,2.90
2023-03-07T06:03:39.036Z,2.70
2023-03-07T06:06:06.075Z,2.80
2023-03-07T06:08:32.795Z,2.90
2023-03-07T06:10:59.497Z,2.80
2023-03-07T06:13:26.606Z,2.70
2023-03-07T06:15:55.111Z,2.90
2023-03-07T06:18:23.610Z,3.10
2023-03-07T06:21:02.051Z,2.90
2023-03-07T06:23:31.548Z,3.10
2023-03-07T06:25:58.739Z,3.30
2023-03-07T06:28:42.663Z,3.40
2023-03-07T06:31:11.924Z,3.40
2023-03-07T06:33:38.795Z,3.40
2023-03-07T06:36:09.631Z,3.60
2023-03-07T06:38:36.664Z,3.50
2023-03-07T06:41:04.114Z,3.60
2023-03-07T06:43:30.797Z,3.60
2023-03-07T06:45:57.504Z,3.70
2023-03-07T06:48:25.021Z,3.40
2023-03-07T06:50:51.688Z,3.60
2023-03-07T06:53:18.644Z,3.70
2023-03-07T06:55:50.121Z,4.00
2023-03-07T06:58:17.478Z,4.10
2023-03-07T07:00:44.818Z,4.30
2023-03-07T07:03:15.171Z,4.50
2023-03-07T07:05:41.993Z,4.50
2023-03-07T07:08:09.276Z,4.70
2023-03-07T07:10:36.774Z,4.60
2023-03-07T07:13:04.595Z,4.50
2023-03-07T07:15:31.817Z,4.60
2023-03-07T07:17:58.538Z,4.50
2023-03-07T07:20:25.480Z,4.60
2023-03-07T07:22:52.206Z,4.40
2023-03-07T07:25:19.209Z,4.50
2023-03-07T07:27:46.005Z,4.60
2023-03-07T07:30:13.826Z,4.80
2023-03-07T07:32:40.703Z,4.30
2023-03-07T07:35:08.115Z,4.60
2023-03-07T07:37:34.827Z,5.00
2023-03-07T07:40:01.626Z,5.40
2023-03-07T07:42:29.356Z,5.50
2023-03-07T07:44:57.391Z,5.40
2023-03-07T07:47:24.049Z,5.50
2023-03-07T07:49:50.780Z,5.60
2023-03-07T07:52:18.169Z,5.20
2023-03-07T07:54:44.874Z,5.10
2023-03-07T07:57:11.558Z,5.20
2023-03-07T07:59:38.297Z,5.20
2023-03-07T08:02:05.127Z,5.50
2023-03-07T08:04:32.092Z,5.10
2023-03-07T08:06:58.749Z,5.00
2023-03-07T08:09:25.617Z,5.20
2023-03-07T08:11:52.281Z,5.30
2023-03-07T08:14:19.101Z,5.20
2023-03-07T08:16:45.822Z,5.40
2023-03-07T08:19:12.584Z,5.50
2023-03-07T08:21:40.007Z,5.60
2023-03-07T08:24:06.892Z,5.40
2023-03-07T08:26:33.573Z,5.40
2023-03-07T08:29:00.298Z,5.10
2023-03-07T08:31:27.292Z,5.20
2023-03-07T08:33:54.055Z,5.30
2023-03-07T08:36:21.025Z,5.30
2023-03-07T08:38:51.423Z,5.60
2023-03-07T08:41:19.431Z,5.30
2023-03-07T08:43:46.186Z,5.30
2023-03-07T08:46:13.233Z,5.90
2023-03-07T08:48:40.415Z,6.20
2023-03-07T08:51:10.323Z,6.40
2023-03-07T08:53:37.805Z,6.60
2023-03-07T08:56:09.366Z,6.20
2023-03-07T08:58:36.699Z,6.00
2023-03-07T09:01:05.128Z,5.70
2023-03-07T09:03:32.193Z,6.00
2023-03-07T09:05:59.179Z,6.40
2023-03-07T09:08:25.832Z,6.40
2023-03-07T09:10:53.008Z,6.20
2023-03-07T09:13:19.910Z,6.20
2023-03-07T09:15:46.746Z,6.50
2023-03-07T09:18:13.622Z,6.50
2023-03-07T09:20:40.965Z,6.70
2023-03-07T09:23:08.388Z,6.50
2023-03-07T09:25:36.324Z,6.80
2023-03-07T09:28:04.217Z,6.80
2023-03-07T09:30:31.179Z,7.40
2023-03-07T09:32:58.291Z,7.90
2023-03-07T09:35:25.857Z,8.00
2023-03-07T09:37:52.568Z,8.40
2023-03-07T09:40:23.565Z,8.90
2023-03-07T09:42:57.161Z,9.40
2023-03-07T09:45:44.212Z,8.40
2023-03-07T09:48:22.824Z,8.10
2023-03-07T09:51:11.885Z,8.00
2023-03-07T09:53:56.877Z,8.40
2023-03-07T09:56:58.974Z,7.80
2023-03-07T09:59:35.932Z,7.40
2023-03-07T10:02:26.609Z,8.40
2023-03-07T10:05:02.379Z,9.10
2023-03-07T10:07:29.550Z,9.40
2023-03-07T10:10:07.347Z,9.60
2023-03-07T10:12:37.044Z,10.10
2023-03-07T10:15:15.677Z,10.30
2023-03-07T10:18:14.485Z,10.70
2023-03-07T10:20:57.546Z,11.90
2023-03-07T10:23:31.051Z,12.10
2023-03-07T10:26:06.771Z,13.00
2023-03-07T10:28:35.242Z,12.90
2023-03-07T10:31:20.501Z,13.00
2023-03-07T10:33:49.078Z,13.50
2023-03-07T10:36:43.391Z,15.00
2023-03-07T10:39:49.575Z,15.50
2023-03-07T10:42:19.227Z,16.00
2023-03-07T10:44:48.883Z,17.10
2023-03-07T10:47:22.243Z,17.80
2023-03-07T10:49:51.308Z,19.30
2023-03-07T10:52:39.718Z,19.70
2023-03-07T10:55:37.820Z,20.30
2023-03-07T10:58:20.382Z,20.50
2023-03-07T11:01:14.219Z,20.40
2023-03-07T11:03:52.701Z,19.60
2023-03-07T11:06:52.353Z,18.60
2023-03-07T11:09:45.866Z,17.80
2023-03-07T11:12:18.899Z,17.90
2023-03-07T11:14:51.215Z,17.40
2023-03-07T11:17:23.834Z,17.10
2023-03-07T11:19:57.989Z,17.10
2023-03-07T11:22:28.545Z,16.20
2023-03-07T11:25:27.371Z,16.20
2023-03-07T11:28:00.167Z,16.60
2023-03-07T11:30:50.901Z,17.60
2023-03-07T11:33:28.589Z,17.90
2023-03-07T11:36:13.168Z,17.70
2023-03-07T11:38:48.415Z,17.10
2023-03-07T11:41:35.862Z,16.20
2023-03-07T11:44:08.269Z,15.70
2023-03-07T11:47:03.084Z,16.10
2023-03-07T11:49:56.863Z,16.20
2023-03-07T11:52:40.978Z,15.70
2023-03-07T11:55:19.586Z,15.90
2023-03-07T11:57:51.960Z,15.10
2023-03-07T12:00:36.540Z,14.50
2023-03-07T12:03:23.381Z,14.40
2023-03-07T12:05:49.952Z,14.50
2023-03-07T12:08:19.573Z,14.90
2023-03-07T12:11:09.555Z,15.00
2023-03-07T12:13:54.685Z,14.50
2023-03-07T12:16:37.771Z,14.90
2023-03-07T12:19:43.044Z,15.50
2023-03-07T12:22:29.869Z,15.10
2023-03-07T12:25:33.392Z,14.60
2023-03-07T12:28:22.325Z,14.80
2023-03-07T12:31:06.589Z,14.20
2023-03-07T12:33:46.838Z,14.60
2023-03-07T12:36:31.218Z,14.40
2023-03-07T12:39:05.899Z,13.60
2023-03-07T12:41:41.117Z,13.60
2023-03-07T12:44:29.275Z,13.70
2023-03-07T12:47:23.329Z,13.80
2023-03-07T12:50:05.476Z,13.70
2023-03-07T12:52:41.723Z,13.30
2023-03-07T12:55:31.012Z,13.50
2023-03-07T12:58:25.602Z,13.30
2023-03-07T13:01:01.298Z,12.60
2023-03-07T13:03:44.364Z,12.20
2023-03-07T13:06:18.489Z,12.10
2023-03-07T13:08:50.985Z,11.80
2023-03-07T13:11:23.753Z,11.70
2023-03-07T13:13:52.311Z,11.70
2023-03-07T13:16:42.507Z,12.00
2023-03-07T13:19:30.774Z,12.00
2023-03-07T13:21:58.053Z,12.50
2023-03-07T13:24:35.090Z,12.70
2023-03-07T13:27:04.653Z,12.70
2023-03-07T13:30:04.702Z,13.00
2023-03-07T13:32:52.540Z,13.60
2023-03-07T13:35:28.869Z,13.10
2023-03-07T13:38:13.641Z,13.20
2023-03-07T13:40:46.547Z,13.20
2023-03-07T13:43:19.393Z,12.90
2023-03-07T13:45:47.950Z,12.20
2023-03-07T13:48:26.569Z,11.80
2023-03-07T13:50:54.021Z,11.40
2023-03-07T13:53:35.752Z,11.50
2023-03-07T13:56:25.104Z,11.80
2023-03-07T13:59:10.076Z,12.10
2023-03-07T14:01:40.599Z,12.30
2023-03-07T14:04:39.547Z,12.30
2023-03-07T14:07:19.687Z,12.30
2023-03-07T14:09:58.125Z,12.40
2023-03-07T14:13:05.258Z,12.30
2023-03-07T14:15:51.396Z,12.80
2023-03-07T14:18:29.696Z,13.20
2023-03-07T14:21:26.117Z,12.10
2023-03-07T14:24:17.322Z,12.30
2023-03-07T14:26:48.773Z,11.70
2023-03-07T14:29:18.832Z,11.40
2023-03-07T14:31:46.853Z,11.40
2023-03-07T14:34:36.714Z,11.40
2023-03-07T14:37:07.454Z,10.60
2023-03-07T14:39:47.766Z,10.60
2023-03-07T14:42:39.732Z,10.30
2023-03-07T14:45:12.259Z,10.30
2023-03-07T14:47:58.055Z,10.60
2023-03-07T14:50:29.682Z,10.60
2023-03-07T14:53:03.153Z,10.80
2023-03-07T14:55:39.150Z,11.10
2023-03-07T14:58:06.197Z,10.80
2023-03-07T15:00:34.589Z,10.80
2023-03-07T15:03:09.869Z,10.80
2023-03-07T15:05:53.264Z,10.30
2023-03-07T15:08:22.568Z,10.20
2023-03-07T15:10:58.557Z,9.90
2023-03-07T15:13:31.117Z,9.90
2023-03-07T15:16:03.593Z,10.00
2023-03-07T15:18:38.122Z,10.10
2023-03-07T15:21:06.065Z,10.10
2023-03-07T15:23:32.816Z,10.10
2023-03-07T15:26:05.261Z,9.90
2023-03-07T15:28:41.088Z,9.70
2023-03-07T15:31:11.429Z,9.40
2023-03-07T15:33:38.192Z,9.30
2023-03-07T15:36:13.793Z,9.50
2023-03-07T15:38:46.377Z,9.70
2023-03-07T15:41:33.676Z,9.70
2023-03-07T15:44:10.538Z,9.40
2023-03-07T15:46:44.251Z,9.20
2023-03-07T15:49:41.178Z,9.20
2023-03-07T15:52:19.965Z,8.80
2023-03-07T15:54:51.603Z,8.50
2023-03-07T15:57:31.518Z,8.10
2023-03-07T16:00:02.482Z,8.10
2023-03-07T16:02:31.970Z,7.80
2023-03-07T16:05:24.725Z,7.80
2023-03-07T16:07:53.565Z,8.10
2023-03-07T16:10:21.415Z,7.70
2023-03-07T16:12:49.477Z,7.60
2023-03-07T16:15:18.101Z,7.60
2023-03-07T16:17:45.908Z,7.70
2023-03-07T16:20:17.514Z,7.70
2023-03-07T16:22:44.568Z,7.60
2023-03-07T16:25:11.866Z,7.80
2023-03-07T16:27:38.885Z,7.80
2023-03-07T16:30:17.184Z,7.70
2023-03-07T16:32:44.101Z,7.60
2023-03-07T16:35:20.131Z,7.60
2023-03-07T16:37:47.498Z,7.70
2023-03-07T16:40:15.958Z,7.70
2023-03-07T16:42:47.599Z,7.80
2023-03-07T16:45:20.083Z,7.90
2023-03-07T16:47:47.719Z,7.80
2023-03-07T16:50:19.986Z,7.50
2023-03-07T16:52:46.622Z,7.50
2023-03-07T16:55:15.423Z,7.40
2023-03-07T16:57:45.759Z,7.40
2023-03-07T17:00:24.143Z,7.30
2023-03-07T17:02:52.861Z,7.20
2023-03-07T17:05:25.330Z,7.30
2023-03-07T17:07:53.294Z,7.10
2023-03-07T17:10:20.531Z,7.00
2023-03-07T17:12:49.292Z,7.00
2023-03-07T17:15:19.408Z,6.80
2023-03-07T17:17:46.311Z,6.60
2023-03-07T17:20:16.006Z,6.50
2023-03-07T17:22:42.984Z,6.40
2023-03-07T17:25:10.564Z,6.40
2023-03-07T17:27:42.200Z,6.30
2023-03-07T17:30:14.707Z,6.40
2023-03-07T17:32:41.707Z,6.30
2023-03-07T17:35:09.710Z,6.40
2023-03-07T17:37:36.891Z,6.30
2023-03-07T17:40:10.000Z,6.30
2023-03-07T17:42:41.858Z,6.50
2023-03-07T17:45:10.559Z,6.20
2023-03-07T17:47:37.306Z,6.30
2023-03-07T17:50:05.401Z,6.30
2023-03-07T17:52:32.939Z,6.10
2023-03-07T17:54:59.911Z,6.00
2023-03-07T17:57:27.457Z,6.00
2023-03-07T17:59:54.973Z,6.10
2023-03-07T18:02:21.637Z,6.10
2023-03-07T18:04:48.726Z,6.10
2023-03-07T18:07:18.193Z,6.20
2023-03-07T18:09:44.995Z,6.20
2023-03-07T18:12:11.619Z,6.30
2023-03-07T18:14:38.299Z,6.20
2023-03-07T18:17:05.021Z,6.20
2023-03-07T18:19:32.365Z,6.20
2023-03-07T18:21:59.008Z,6.30
2023-03-07T18:24:31.534Z,6.10
2023-03-07T18:26:59.436Z,6.30
2023-03-07T18:29:27.480Z,6.20
2023-03-07T18:31:54.121Z,6.20
2023-03-07T18:34:21.215Z,6.10
2023-03-07T18:36:51.570Z,6.10
2023-03-07T18:39:18.902Z,6.10
2023-03-07T18:41:45.792Z,6.10
2023-03-07T18:44:12.398Z,6.10
2023-03-07T18:46:39.169Z,6.00
2023-03-07T18:49:06.016Z,6.10
2023-03-07T18:51:32.693Z,6.20
2023-03-07T18:54:01.306Z,6.10
2023-03-07T18:56:28.736Z,6.10
2023-03-07T18:58:58.737Z,6.10
2023-03-07T19:01:31.081Z,6.30
2023-03-07T19:04:00.723Z,6.30
2023-03-07T19:06:36.246Z,6.20
2023-03-07T19:09:03.773Z,6.10
2023-03-07T19:11:31.073Z,6.10
2023-03-07T19:13:58.160Z,6.10
2023-03-07T19:16:26.935Z,6.10
2023-03-07T19:18:54.694Z,6.10
2023-03-07T19:21:26.582Z,6.10
2023-03-07T19:23:54.549Z,6.00
2023-03-07T19:26:22.698Z,5.80
2023-03-07T19:28:52.475Z,5.90
2023-03-07T19:31:23.501Z,5.90
2023-03-07T19:33:51.564Z,5.80
2023-03-07T19:36:21.278Z,6.10
2023-03-07T19:38:49.686Z,6.10
2023-03-07T19:41:19.405Z,5.90
2023-03-07T19:43:46.084Z,6.10
2023-03-07T19:46:14.740Z,6.10
2023-03-07T19:48:43.242Z,6.10
2023-03-07T19:51:18.206Z,6.00
2023-03-07T19:53:45.759Z,5.90
2023-03-07T19:56:19.112Z,5.70
2023-03-07T19:58:45.999Z,5.90
2023-03-07T20:01:15.805Z,5.70
2023-03-07T20:03:42.734Z,5.90
2023-03-07T20:06:14.130Z,6.10
2023-03-07T20:08:40.954Z,6.10
2023-03-07T20:11:12.910Z,6.10
2023-03-07T20:13:41.064Z,6.00
2023-03-07T20:16:10.372Z,6.00
2023-03-07T20:18:38.196Z,6.00
2023-03-07T20:21:10.372Z,6.00
2023-03-07T20:23:37.605Z,5.90
2023-03-07T20:26:12.696Z,5.80
2023-03-07T20:28:39.454Z,6.10
2023-03-07T20:31:09.211Z,5.90
2023-03-07T20:33:36.679Z,6.00
2023-03-07T20:36:09.043Z,5.90
2023-03-07T20:38:37.232Z,5.80
2023-03-07T20:41:11.396Z,5.90
2023-03-07T20:43:38.084Z,5.90
2023-03-07T20:46:15.371Z,5.80
2023-03-07T20:48:43.201Z,5.70
2023-03-07T20:51:18.803Z,5.90
2023-03-07T20:53:53.067Z,5.70
2023-03-07T20:56:21.224Z,5.60
2023-03-07T20:58:48.483Z,5.60
2023-03-07T21:01:17.129Z,5.50
2023-03-07T21:03:44.298Z,5.60
2023-03-07T21:06:11.375Z,5.60
2023-03-07T21:08:38.309Z,5.60
2023-03-07T21:11:12.861Z,5.50
2023-03-07T21:13:41.663Z,5.50
2023-03-07T21:16:20.632Z,5.40
2023-03-07T21:18:48.200Z,5.40
2023-03-07T21:21:17.782Z,5.40
2023-03-07T21:23:45.804Z,5.50
2023-03-07T21:26:23.235Z,5.50
2023-03-07T21:28:51.231Z,5.50
2023-03-07T21:31:20.581Z,5.50
2023-03-07T21:33:51.005Z,5.50
2023-03-07T21:36:17.711Z,5.60
2023-03-07T21:38:45.660Z,5.50
2023-03-07T21:41:13.727Z,5.60
2023-03-07T21:43:40.839Z,5.70
2023-03-07T21:46:09.822Z,5.80
2023-03-07T21:48:36.566Z,5.80
2023-03-07T21:51:04.224Z,5.50
2023-03-07T21:53:31.569Z,5.50
2023-03-07T21:56:00.347Z,5.40
2023-03-07T21:58:28.511Z,5.40
2023-03-07T22:00:56.319Z,5.50
2023-03-07T22:03:27.900Z,5.50
2023-03-07T22:05:56.942Z,5.50
2023-03-07T22:08:24.160Z,5.50
2023-03-07T22:11:03.233Z,5.40
2023-03-07T22:13:32.578Z,5.50
2023-03-07T22:16:00.966Z,5.60
2023-03-07T22:18:28.208Z,5.60
2023-03-07T22:20:55.239Z,5.40
2023-03-07T22:23:23.438Z,5.40
2023-03-07T22:25:50.146Z,5.50
2023-03-07T22:28:19.278Z,5.50
2023-03-07T22:30:47.065Z,5.50
2023-03-07T22:33:13.697Z,5.50
2023-03-07T22:35:40.486Z,5.40
2023-03-07T22:38:07.245Z,5.30
2023-03-07T22:40:33.968Z,5.20
2023-03-07T22:43:00.595Z,5.20
2023-03-07T22:45:27.187Z,5.30
2023-03-07T22:47:53.844Z,5.30
2023-03-07T22:50:20.686Z,5.20
2023-03-07T22:52:48.181Z,5.20
2023-03-07T22:55:14.877Z,5.20
2023-03-07T22:57:41.508Z,5.20
2023-03-07T23:00:08.846Z,5.10
2023-03-07T23:02:35.497Z,5.20
2023-03-07T23:05:02.173Z,5.00
2023-03-07T23:07:28.811Z,4.90
2023-03-07T23:09:55.414Z,5.10
2023-03-07T23:12:22.019Z,4.90
2023-03-07T23:14:48.654Z,4.90
2023-03-07T23:17:15.295Z,4.90
2023-03-07T23:19:41.883Z,4.90
2023-03-07T23:22:08.552Z,4.90
2023-03-07T23:24:36.113Z,4.90
2023-03-07T23:27:02.720Z,4.80
2023-03-07T23:29:29.300Z,5.00
2023-03-07T23:31:55.981Z,4.90
2023-03-07T23:34:22.839Z,5.00
2023-03-07T23:36:49.612Z,4.90
2023-03-07T23:39:17.475Z,4.70
2023-03-07T23:41:44.220Z,4.70
2023-03-07T23:44:11.544Z,4.70
2023-03-07T23:46:38.274Z,4.70
2023-03-07T23:49:05.441Z,4.80
2023-03-07T23:51:32.201Z,4.80
2023-03-07T23:53:58.815Z,4.80
2023-03-07T23:56:25.568Z,4.80
2023-03-07T23:58:52.559Z,4.70
